Main page
METAR-TAF:

METAR-TAF

Airports :

Monseñor Óscar Arnulfo Romero International Airport

El Salvador, El Salvador

latitude: 13-26N, longitude: 089-03W, elevation: 25 m

Current weather observation

The report was made 31 minutes ago, at 22:50 UTC
Wind 14 kt from the North with gusts up to 24 kt
Temperature 31°C
Humidity 36%
Pressure 1010 hPa
Visibility 10 km or more
no clouds below 1500 m and no cumulonimbus

METAR: MSLP 212250Z 01014G24KT CAVOK 31/14 Q1010 A2983 NOSIG RMK FU E SE S

Time: 17:21 (23:21 UTC)

Forecast

The report was made 7 hours and 56 minutes ago, at 15:25 UTC
Forecast valid from 21 at 18 UTC to 22 at 18 UTC
Wind 15 kt from the North/Northeast with gusts up to 25 kt
Visibility 10 km or more
no clouds below 1500 m and no cumulonimbus

TAF: MSLP 211525Z 2118/2218 02015G25KT CAVOK TX35/2119Z TN22/2210Z

Weather observations and forecasts of more than 4000 airports (METAR and TAF reports).

The available stations are represented by yellow and red dots on the map.

Hover mouse over dot to see the name of the station.

Then click to see weather observations and forecasts.

To change the map : click on the green buttons with a black cross to zoom in, on the green button with a dash to zoom out, or on the green arrows for adjacent maps.


METAR-TAF: